Time;durP1;ratioP1;P1;durP2;ratioP2;P2;SDS_P1;SDS_P2;PMS_P1;PMS_P2;Temp;Humidity;BMP_temperature;BMP_pressure;BME280_temperature;BME280_humidity;BME280_pressure;Samples;Min_cycle;Max_cycle;Signal;HPM_P1;HPM_P2
2022/11/14 06:09:19;;;;;;;2.77;1.67;;;;;;;;;;1791338;77;22527;-47
2022/11/14 06:12:06;;;;;;;8.98;2.27;;;;;;;;;;1774210;78;21057;-47
2022/11/14 06:14:51;;;;;;;13.23;2.27;;;;;;;;;;1775420;79;21844;-47
2022/11/14 06:17:36;;;;;;;3.33;1.60;;;;;;;;;;1774053;78;21668;-47
2022/11/14 06:20:21;;;;;;;4.62;1.77;;;;;;;;;;1770815;78;27250;-48
2022/11/14 06:23:05;;;;;;;3.98;1.52;;;;;;;;;;1765061;79;21053;-47
2022/11/14 06:25:50;;;;;;;9.27;1.27;;;;;;;;;;1773144;79;20989;-48
2022/11/14 06:28:35;;;;;;;8.15;1.50;;;;;;;;;;1770516;79;21833;-47
2022/11/14 06:31:20;;;;;;;12.43;1.70;;;;;;;;;;1774845;78;21009;-48
2022/11/14 06:34:05;;;;;;;4.33;1.60;;;;;;;;;;1779559;79;21574;-49
2022/11/14 06:36:50;;;;;;;;;;;;;;;;;;1778945;79;21536;-50
2022/11/14 06:39:35;;;;;;;5.85;1.37;;;;;;;;;;1773155;78;20234;-49
2022/11/14 06:42:20;;;;;;;2.17;1.52;;;;;;;;;;1776098;78;22145;-49
2022/11/14 06:45:07;;;;;;;6.13;1.10;;;;;;;;;;1739439;81;21524;-48
2022/11/14 06:47:51;;;;;;;2.73;1.37;;;;;;;;;;1737432;81;21048;-49
2022/11/14 06:50:36;;;;;;;7.62;1.40;;;;;;;;;;1745358;81;21157;-49
2022/11/14 06:53:21;;;;;;;1.45;1.05;;;;;;;;;;1742628;81;21077;-48
2022/11/14 06:56:10;;;;;;;2.13;0.93;;;;;;;;;;1742326;81;21363;-48
2022/11/14 06:58:56;;;;;;;3.40;1.20;;;;;;;;;;1738658;81;21508;-49
2022/11/14 07:01:42;;;;;;;2.12;1.00;;;;;;;;;;1738670;80;21290;-50
2022/11/14 07:04:26;;;;;;;5.10;1.20;;;;;;;;;;1745916;80;21089;-48
2022/11/14 07:07:11;;;;;;;1.47;0.90;;;;;;;;;;1744954;80;21035;-48
2022/11/14 07:09:57;;;;;;;3.72;0.90;;;;;;;;;;1744427;81;22648;-49
2022/11/14 07:12:42;;;;;;;1.30;0.83;;;;;;;;;;1742731;81;21808;-48
2022/11/14 07:15:27;;;;;;;2.17;1.22;;;;;;;;;;1709351;82;30158;-49
2022/11/14 07:18:11;;;;;;;;;;;;;;;;;;1672099;84;21559;-49
2022/11/14 07:20:58;;;;;;;3.60;1.10;;;;;;;;;;1685085;83;20210;-49
2022/11/14 07:23:43;;;;;;;1.00;0.80;;;;;;;;;;1686649;83;21898;-48
2022/11/14 07:26:28;;;;;;;3.20;0.90;;;;;;;;;;1713257;82;21077;-49
2022/11/14 07:29:13;;;;;;;1.55;1.00;;;;;;;;;;1699337;82;21058;-48
2022/11/14 07:31:57;;;;;;;4.50;1.10;;;;;;;;;;1702557;82;22232;-48
2022/11/14 07:34:42;;;;;;;3.05;1.10;;;;;;;;;;1700570;82;21057;-49
2022/11/14 07:37:26;;;;;;;4.10;1.10;;;;;;;;;;1686758;83;21867;-48
2022/11/14 07:40:12;;;;;;;4.23;1.33;;;;;;;;;;1681902;83;21072;-49
2022/11/14 07:42:59;;;;;;;2.92;1.92;;;;;;;;;;1666288;84;21086;-49
2022/11/14 07:45:44;;;;;;;3.87;1.73;;;;;;;;;;1687289;83;21160;-48
2022/11/14 07:48:29;;;;;;;2.30;1.95;;;;;;;;;;1713788;82;21096;-49
2022/11/14 07:51:18;;;;;;;2.80;2.40;;;;;;;;;;1677602;84;21852;-49
2022/11/14 07:54:03;;;;;;;3.30;2.07;;;;;;;;;;1717614;82;21505;-49
2022/11/14 07:56:47;;;;;;;;;;;;;;;;;;1673681;83;21037;-49
2022/11/14 07:59:32;;;;;;;2.57;2.23;;;;;;;;;;1698594;83;20199;-49
2022/11/14 08:02:17;;;;;;;;;;;;;;;;;;1687977;83;21092;-50
2022/11/14 08:05:01;;;;;;;3.03;2.03;;;;;;;;;;1708450;81;23322;-49
2022/11/14 08:07:51;;;;;;;3.80;2.20;;;;;;;;;;1709883;81;21030;-50
2022/11/14 08:10:36;;;;;;;4.47;2.37;;;;;;;;;;1704805;83;21035;-49
2022/11/14 08:13:21;;;;;;;3.15;2.75;;;;;;;;;;1737787;81;21047;-50
2022/11/14 08:16:06;;;;;;;4.58;2.50;;;;;;;;;;1737431;82;27314;-49
2022/11/14 08:18:51;;;;;;;8.00;2.77;;;;;;;;;;1700145;82;21670;-50
2022/11/14 08:21:35;;;;;;;3.75;2.77;;;;;;;;;;1738607;80;21624;-49
2022/11/14 08:24:20;;;;;;;4.70;4.05;;;;;;;;;;1734238;80;26803;-50
2022/11/14 08:27:05;;;;;;;6.03;4.10;;;;;;;;;;1740140;81;21537;-50
2022/11/14 08:29:51;;;;;;;6.10;3.70;;;;;;;;;;1737856;80;21071;-50
2022/11/14 08:32:37;;;;;;;4.43;4.00;;;;;;;;;;1740206;80;21834;-49
2022/11/14 08:35:24;;;;;;;5.63;4.53;;;;;;;;;;1741226;80;21369;-49
2022/11/14 08:38:08;;;;;;;3.70;3.35;;;;;;;;;;1736970;80;27363;-48
2022/11/14 08:40:59;;;;;;;4.73;3.80;;;;;;;;;;1739986;80;21064;-48
2022/11/14 08:43:44;;;;;;;3.45;2.65;;;;;;;;;;1737184;80;21363;-49
2022/11/14 08:46:29;;;;;;;3.83;3.45;;;;;;;;;;1738708;80;21849;-49
2022/11/14 08:49:13;;;;;;;5.87;3.67;;;;;;;;;;1738143;81;26724;-49
2022/11/14 08:51:58;;;;;;;5.17;4.22;;;;;;;;;;1736065;80;21494;-48
2022/11/14 08:54:43;;;;;;;5.28;3.40;;;;;;;;;;1738225;81;21313;-49
2022/11/14 08:57:28;;;;;;;7.80;3.67;;;;;;;;;;1738670;81;21042;-49
2022/11/14 09:00:14;;;;;;;4.40;3.10;;;;;;;;;;1738612;81;22464;-49
2022/11/14 09:02:58;;;;;;;4.22;3.83;;;;;;;;;;1740016;80;21043;-48
2022/11/14 09:08:13;;;;;;;3.30;2.20;;;;;;;;;;1879592;74;22019;-49
2022/11/14 09:11:01;;;;;;;4.55;2.55;;;;;;;;;;1845257;75;21032;-48
2022/11/14 09:13:46;;;;;;;3.77;2.87;;;;;;;;;;1844633;75;21911;-48
2022/11/14 09:16:32;;;;;;;3.67;3.37;;;;;;;;;;1843708;75;21255;-49
2022/11/14 09:19:17;;;;;;;3.92;3.05;;;;;;;;;;1845944;75;21022;-48
2022/11/14 09:22:01;;;;;;;4.28;3.17;;;;;;;;;;1847235;75;21065;-49
2022/11/14 09:24:48;;;;;;;3.92;3.52;;;;;;;;;;1848417;75;21542;-49
2022/11/14 09:27:33;;;;;;;3.95;3.58;;;;;;;;;;1848696;75;21998;-48
2022/11/14 09:30:18;;;;;;;3.52;2.95;;;;;;;;;;1850176;75;21568;-49
2022/11/14 09:33:03;;;;;;;6.62;3.02;;;;;;;;;;1851521;75;21506;-49
2022/11/14 09:35:48;;;;;;;6.72;3.47;;;;;;;;;;1852839;75;21009;-49
2022/11/14 09:38:33;;;;;;;5.12;3.55;;;;;;;;;;1826077;75;21127;-50
2022/11/14 09:41:24;;;;;;;4.58;3.10;;;;;;;;;;1851740;76;21820;-48
2022/11/14 09:44:41;;;;;;;5.25;3.62;;;;;;;;;;1826825;76;21045;-49
2022/11/14 09:47:44;;;;;;;4.17;3.55;;;;;;;;;;1822799;77;21005;-49
2022/11/14 09:50:32;;;;;;;3.35;2.02;;;;;;;;;;1810799;77;21530;-49
2022/11/14 09:53:31;;;;;;;3.40;2.60;;;;;;;;;;1797635;77;21044;-49
2022/11/14 09:56:24;;;;;;;5.65;3.80;;;;;;;;;;1815572;77;21944;-49
2022/11/14 09:59:12;;;;;;;4.58;3.33;;;;;;;;;;1815103;77;21032;-48
2022/11/14 10:02:03;;;;;;;6.37;4.83;;;;;;;;;;1817183;77;21308;-50
2022/11/14 10:04:59;;;;;;;5.97;3.52;;;;;;;;;;1814095;77;21072;-49
2022/11/14 10:08:02;;;;;;;4.90;4.08;;;;;;;;;;1816397;76;21032;-50
2022/11/14 10:10:50;;;;;;;6.25;5.65;;;;;;;;;;1821712;76;21187;-49
2022/11/14 10:14:06;;;;;;;7.30;4.20;;;;;;;;;;1818594;77;21325;-48
2022/11/14 10:17:24;;;;;;;3.62;3.30;;;;;;;;;;1810297;76;21079;-49
2022/11/14 10:20:24;;;;;;;3.50;3.20;;;;;;;;;;1823478;76;21020;-50
2022/11/14 10:23:22;;;;;;;8.45;3.75;;;;;;;;;;1814060;76;21041;-50
2022/11/14 10:26:25;;;;;;;4.60;2.55;;;;;;;;;;1815624;76;22481;-49
2022/11/14 10:29:33;;;;;;;6.95;2.87;;;;;;;;;;1818934;76;21116;-49
2022/11/14 10:35:06;;;;;;;4.07;2.60;;;;;;;6.54;100.00;100963.52;1788881;78;23301;-47
2022/11/14 10:38:08;;;;;;;5.92;2.33;;;;;;;6.52;100.00;100982.27;1744419;80;22816;-50
2022/11/14 10:40:54;;;;;;;3.40;2.98;;;;;;;6.52;100.00;100982.71;1745055;80;21956;-49
2022/11/14 10:43:45;;;;;;;3.58;2.80;;;;;;;6.50;100.00;100976.48;1742901;79;21036;-48
2022/11/14 10:46:37;;;;;;;6.92;2.65;;;;;;;6.52;100.00;100980.92;1736658;81;21065;-49
2022/11/14 10:49:24;;;;;;;3.80;2.77;;;;;;;6.56;100.00;100978.63;1734251;80;21100;-49
2022/11/14 22:51:58;;;;;;;9.77;3.93;;;;;;;4.58;100.00;100754.09;1792549;78;23137;-49
2022/11/14 22:54:43;;;;;;;5.73;4.87;;;;;;;4.53;100.00;100763.44;1766984;79;21692;-48
2022/11/14 22:57:28;;;;;;;5.27;4.30;;;;;;;4.53;100.00;100761.22;1772368;79;21855;-48
2022/11/14 23:00:14;;;;;;;;;;;;;;;4.53;100.00;100762.11;1776734;79;21045;-48
2022/11/14 23:02:59;;;;;;;5.00;3.77;;;;;;;4.54;100.00;100761.66;1767563;80;20689;-48
2022/11/14 23:05:45;;;;;;;3.40;3.00;;;;;;;4.54;100.00;100754.55;1768547;79;21093;-48
2022/11/14 23:08:30;;;;;;;4.93;2.97;;;;;;;4.54;100.00;100742.55;1771734;79;21046;-48
2022/11/14 23:11:22;;;;;;;6.03;3.43;;;;;;;4.55;100.00;100742.99;1765353;79;21956;-48
2022/11/14 23:14:08;;;;;;;4.03;2.67;;;;;;;4.56;100.00;100737.21;1776428;79;21116;-48
2022/11/14 23:16:54;;;;;;;3.37;2.67;;;;;;;4.56;100.00;100720.77;1767913;79;21049;-48
2022/11/14 23:19:39;;;;;;;6.90;3.40;;;;;;;4.56;100.00;100712.77;1773648;79;21076;-48
2022/11/14 23:22:25;;;;;;;6.60;2.87;;;;;;;4.59;100.00;100709.20;1767606;79;21056;-48
2022/11/14 23:25:09;;;;;;;7.30;3.45;;;;;;;4.61;100.00;100695.38;1765789;79;21783;-48
2022/11/14 23:27:55;;;;;;;6.40;2.70;;;;;;;4.63;100.00;100698.92;1766946;79;21062;-48
2022/11/14 23:30:40;;;;;;;6.28;3.22;;;;;;;4.66;100.00;100698.91;1770293;79;21084;-48
2022/11/14 23:33:25;;;;;;;4.15;2.10;;;;;;;4.69;100.00;100704.19;1767037;79;22700;-48
2022/11/14 23:36:11;;;;;;;4.57;2.47;;;;;;;4.72;100.00;100699.28;1771979;79;21033;-48
2022/11/14 23:38:56;;;;;;;6.03;2.60;;;;;;;4.74;100.00;100696.16;1765504;79;22008;-48
2022/11/14 23:41:41;;;;;;;3.53;1.73;;;;;;;4.76;100.00;100697.04;1767548;79;21028;-48
2022/11/14 23:44:26;;;;;;;3.12;1.98;;;;;;;4.77;100.00;100699.66;1743925;80;21083;-49
2022/11/14 23:47:13;;;;;;;5.00;2.30;;;;;;;4.77;100.00;100708.11;1745458;81;21443;-48
2022/11/14 23:49:58;;;;;;;4.03;1.47;;;;;;;4.77;100.00;100694.78;1742068;80;21149;-48
2022/11/14 23:52:43;;;;;;;2.65;1.47;;;;;;;4.77;100.00;100692.11;1733844;81;22522;-48
2022/11/14 23:55:29;;;;;;;3.72;1.50;;;;;;;4.76;100.00;100687.26;1731882;81;21403;-48
2022/11/14 23:58:15;;;;;;;4.20;2.90;;;;;;;4.77;100.00;100685.44;1739794;81;21049;-48
